createdAt,value
2017-01-30T00:00:51.678Z,99.99
2017-01-30T00:01:51.622Z,99.99
2017-01-30T00:02:51.599Z,99.99
2017-01-30T00:03:51.400Z,99.99
2017-01-30T00:04:51.566Z,99.99
2017-01-30T00:05:51.591Z,99.99
2017-01-30T00:06:51.527Z,99.99
2017-01-30T00:07:51.507Z,99.99
2017-01-30T00:08:51.564Z,99.99
2017-01-30T00:09:51.468Z,99.99
2017-01-30T00:10:51.445Z,99.99
2017-01-30T00:11:51.424Z,99.99
2017-01-30T00:12:51.402Z,99.99
2017-01-30T00:13:50.991Z,99.99
2017-01-30T00:14:51.383Z,99.99
2017-01-30T00:15:51.349Z,99.99
2017-01-30T00:16:51.354Z,99.99
2017-01-30T00:17:50.909Z,99.99
2017-01-30T00:18:51.289Z,99.99
2017-01-30T00:19:51.272Z,99.99
2017-01-30T00:20:51.246Z,99.99
2017-01-30T00:21:51.229Z,99.99
2017-01-30T00:22:51.213Z,99.99
2017-01-30T00:23:51.198Z,99.99
2017-01-30T00:24:51.171Z,99.99
2017-01-30T00:25:51.149Z,99.99
2017-01-30T00:26:51.127Z,99.99
2017-01-30T00:27:51.106Z,99.99
2017-01-30T00:28:51.087Z,99.99
2017-01-30T00:29:51.079Z,99.99
2017-01-30T00:30:51.050Z,99.99
2017-01-30T00:31:51.034Z,99.99
2017-01-30T00:32:51.011Z,99.99
2017-01-30T00:33:50.987Z,99.99
2017-01-30T00:34:50.972Z,99.99
2017-01-30T00:35:50.951Z,99.99
2017-01-30T00:36:50.936Z,99.99
2017-01-30T00:37:50.913Z,99.99
2017-01-30T00:38:50.890Z,99.99
2017-01-30T00:39:50.479Z,99.99
2017-01-30T00:40:50.857Z,99.99
2017-01-30T00:41:50.841Z,99.99
2017-01-30T00:42:50.816Z,99.99
2017-01-30T00:43:50.796Z,99.99
2017-01-30T00:44:50.808Z,99.99
2017-01-30T00:45:50.757Z,99.99
2017-01-30T00:46:50.737Z,99.99
2017-01-30T00:47:50.719Z,99.99
2017-01-30T00:48:50.699Z,99.99
2017-01-30T00:49:50.678Z,99.99
2017-01-30T00:50:50.664Z,99.99
2017-01-30T00:51:50.650Z,99.99
2017-01-30T00:52:50.622Z,99.99
2017-01-30T00:53:50.626Z,99.99
2017-01-30T00:54:50.582Z,99.99
2017-01-30T00:55:50.563Z,99.99
2017-01-30T00:56:50.148Z,99.99
2017-01-30T00:57:50.576Z,99.99
2017-01-30T00:58:50.507Z,99.99
2017-01-30T00:59:50.485Z,99.99
2017-01-30T01:00:50.466Z,99.99
2017-01-30T01:01:50.449Z,99.99
2017-01-30T01:02:50.426Z,99.99
2017-01-30T01:03:50.410Z,99.99
2017-01-30T01:04:50.387Z,99.99
2017-01-30T01:05:50.371Z,99.99
2017-01-30T01:06:50.404Z,99.99
2017-01-30T01:07:50.333Z,99.99
2017-01-30T01:08:50.311Z,99.99
2017-01-30T01:09:50.292Z,99.99
2017-01-30T01:10:50.276Z,99.99
2017-01-30T01:11:50.254Z,99.99
2017-01-30T01:12:50.231Z,99.99
2017-01-30T01:13:49.825Z,99.99
2017-01-30T01:14:50.197Z,99.99
2017-01-30T01:15:50.175Z,99.99
2017-01-30T01:16:50.156Z,99.99
2017-01-30T01:17:50.137Z,99.99
2017-01-30T01:18:50.119Z,99.99
2017-01-30T01:19:50.139Z,99.99
2017-01-30T01:20:50.081Z,99.99
2017-01-30T01:21:50.065Z,99.99
2017-01-30T01:22:49.764Z,99.99
2017-01-30T01:23:50.039Z,99.99
2017-01-30T01:24:50.008Z,99.99
2017-01-30T01:25:49.992Z,99.99
2017-01-30T01:26:49.967Z,99.99
2017-01-30T01:27:49.951Z,99.99
2017-01-30T01:28:49.928Z,99.99
2017-01-30T01:29:49.932Z,99.99
2017-01-30T01:30:49.891Z,99.99
2017-01-30T01:31:49.875Z,99.99
2017-01-30T01:32:49.856Z,99.99
2017-01-30T01:33:49.837Z,99.99
2017-01-30T01:34:49.812Z,99.99
2017-01-30T01:35:49.799Z,99.99
2017-01-30T01:36:49.784Z,99.99
2017-01-30T01:37:49.756Z,99.99
2017-01-30T01:38:49.743Z,99.99
2017-01-30T01:39:49.722Z,99.99
2017-01-30T01:40:49.749Z,99.99
2017-01-30T01:41:49.283Z,99.99
2017-01-30T01:42:49.662Z,99.99
2017-01-30T01:43:49.673Z,99.99
2017-01-30T01:44:49.627Z,99.99
2017-01-30T01:45:49.261Z,99.99
2017-01-30T01:46:49.589Z,99.99
2017-01-30T01:47:49.569Z,99.99
2017-01-30T01:48:49.547Z,99.99
2017-01-30T01:49:49.133Z,99.99
2017-01-30T01:50:49.517Z,99.99
2017-01-30T01:51:49.489Z,99.99
2017-01-30T01:52:49.472Z,99.99
2017-01-30T01:53:49.457Z,99.99
2017-01-30T01:54:49.437Z,99.99
2017-01-30T01:55:49.417Z,99.99
2017-01-30T01:56:49.398Z,99.99
2017-01-30T01:57:49.387Z,99.99
2017-01-30T01:58:49.361Z,99.99
2017-01-30T01:59:49.342Z,99.99
2017-01-30T02:00:49.331Z,99.99
2017-01-30T02:01:48.907Z,99.99
2017-01-30T02:02:49.286Z,99.99
2017-01-30T02:03:49.469Z,99.99
2017-01-30T02:04:49.246Z,99.99
2017-01-30T02:05:49.231Z,99.99
2017-01-30T02:06:49.212Z,99.99
2017-01-30T02:07:49.192Z,99.99
2017-01-30T02:08:49.176Z,99.99
2017-01-30T02:09:49.151Z,99.99
2017-01-30T02:10:49.162Z,99.99
2017-01-30T02:11:49.126Z,99.99
2017-01-30T02:12:49.094Z,99.99
2017-01-30T02:13:49.074Z,99.99
2017-01-30T02:14:49.058Z,99.99
2017-01-30T02:15:49.037Z,99.99
2017-01-30T02:16:49.017Z,99.99
2017-01-30T02:17:48.998Z,99.99
2017-01-30T02:18:48.981Z,99.99
2017-01-30T02:19:48.966Z,99.99
2017-01-30T02:20:48.945Z,99.99
2017-01-30T02:21:48.925Z,99.99
2017-01-30T02:22:48.908Z,99.99
2017-01-30T02:23:48.887Z,99.99
2017-01-30T02:24:48.872Z,99.99
2017-01-30T02:25:48.850Z,99.99
2017-01-30T02:26:48.834Z,99.99
2017-01-30T02:27:48.825Z,99.99
2017-01-30T02:28:48.791Z,99.99
2017-01-30T02:29:48.875Z,99.99
2017-01-30T02:30:48.754Z,99.99
2017-01-30T02:31:48.737Z,99.99
2017-01-30T02:32:48.767Z,99.99
2017-01-30T02:33:48.696Z,99.99
2017-01-30T02:34:48.335Z,99.99
2017-01-30T02:35:48.262Z,99.99
2017-01-30T02:36:48.643Z,99.99
2017-01-30T02:37:48.618Z,99.99
2017-01-30T02:38:48.608Z,99.99
2017-01-30T02:39:48.584Z,99.3
2017-01-30T02:40:48.565Z,77.66
2017-01-30T02:41:48.544Z,80.51
2017-01-30T02:42:48.522Z,82.21
2017-01-30T02:43:48.513Z,86.96
2017-01-30T02:44:48.491Z,94.84
2017-01-30T02:45:48.474Z,99.99
2017-01-30T02:46:48.452Z,99.99
2017-01-30T02:47:48.480Z,99.99
2017-01-30T02:48:48.010Z,99.99
2017-01-30T02:49:48.389Z,99.99
2017-01-30T02:50:48.370Z,99.99
2017-01-30T02:51:47.957Z,99.99
2017-01-30T02:52:48.328Z,99.99
2017-01-30T02:53:48.353Z,99.99
2017-01-30T02:54:48.291Z,99.99
2017-01-30T02:55:48.269Z,99.99
2017-01-30T02:56:48.253Z,99.99
2017-01-30T02:57:48.312Z,99.99
2017-01-30T02:58:48.220Z,99.99
2017-01-30T02:59:48.197Z,99.99
2017-01-30T03:00:48.177Z,99.99
2017-01-30T03:01:48.156Z,99.99
2017-01-30T03:02:48.132Z,99.99
2017-01-30T03:03:48.116Z,99.99
2017-01-30T03:04:48.097Z,99.99
2017-01-30T03:05:47.682Z,99.99
2017-01-30T03:06:48.088Z,99.99
2017-01-30T03:07:48.045Z,99.99
2017-01-30T03:08:48.018Z,99.99
2017-01-30T03:09:48.002Z,99.99
2017-01-30T03:10:47.977Z,99.99
2017-01-30T03:11:47.966Z,99.99
2017-01-30T03:12:47.941Z,99.99
2017-01-30T03:13:47.917Z,99.99
2017-01-30T03:14:47.904Z,99.99
2017-01-30T03:15:47.485Z,99.99
2017-01-30T03:16:47.861Z,99.99
2017-01-30T03:17:47.450Z,99.99
2017-01-30T03:18:47.829Z,99.99
2017-01-30T03:19:47.810Z,99.99
2017-01-30T03:20:47.793Z,99.99
2017-01-30T03:21:47.772Z,99.99
2017-01-30T03:22:47.744Z,99.99
2017-01-30T03:23:47.724Z,99.99
2017-01-30T03:24:47.712Z,99.99
2017-01-30T03:25:47.291Z,99.99
2017-01-30T03:26:47.665Z,99.99
2017-01-30T03:27:47.645Z,99.99
2017-01-30T03:28:47.628Z,99.99
2017-01-30T03:29:47.608Z,99.99
2017-01-30T03:30:47.586Z,99.99
2017-01-30T03:31:47.175Z,99.99
2017-01-30T03:32:47.554Z,99.99
2017-01-30T03:33:47.529Z,99.99
2017-01-30T03:34:47.522Z,99.99
2017-01-30T03:35:47.493Z,99.99
2017-01-30T03:36:47.479Z,99.99
2017-01-30T03:37:47.456Z,99.99
2017-01-30T03:38:47.433Z,99.99
2017-01-30T03:39:47.415Z,99.99
2017-01-30T03:40:47.397Z,99.99
2017-01-30T03:41:47.377Z,99.99
2017-01-30T03:42:47.360Z,99.99
2017-01-30T03:43:47.337Z,99.99
2017-01-30T03:44:47.320Z,99.99
2017-01-30T03:45:47.303Z,99.99
2017-01-30T03:46:47.278Z,99.99
2017-01-30T03:47:47.261Z,99.99
2017-01-30T03:48:47.243Z,99.99
2017-01-30T03:49:47.224Z,99.99
2017-01-30T03:50:47.235Z,99.99
2017-01-30T03:51:47.234Z,99.99
2017-01-30T03:52:47.167Z,99.99
2017-01-30T03:53:47.144Z,99.99
2017-01-30T03:54:47.126Z,99.99
2017-01-30T03:55:47.136Z,99.99
2017-01-30T03:56:47.085Z,99.99
2017-01-30T03:57:47.076Z,99.99
2017-01-30T03:58:47.050Z,99.99
2017-01-30T03:59:47.032Z,99.99
2017-01-30T04:00:47.013Z,99.99
2017-01-30T04:01:46.991Z,99.99
2017-01-30T04:02:46.980Z,99.99
2017-01-30T04:03:47.161Z,99.99
2017-01-30T04:04:46.935Z,99.99
2017-01-30T04:05:46.914Z,99.99
2017-01-30T04:06:46.897Z,99.99
2017-01-30T04:07:46.924Z,99.99
2017-01-30T04:08:46.884Z,99.99
2017-01-30T04:09:46.839Z,99.99
2017-01-30T04:10:46.831Z,99.99
2017-01-30T04:11:46.820Z,99.99
2017-01-30T04:12:46.780Z,99.99
2017-01-30T04:13:46.766Z,99.99
2017-01-30T04:14:46.341Z,99.99
2017-01-30T04:15:46.719Z,99.99
2017-01-30T04:16:46.703Z,99.99
2017-01-30T04:17:46.691Z,99.99
2017-01-30T04:18:46.666Z,99.99
2017-01-30T04:19:46.245Z,99.99
2017-01-30T04:20:46.626Z,99.99
2017-01-30T04:21:46.603Z,99.99
2017-01-30T04:22:46.587Z,99.99
2017-01-30T04:23:46.568Z,99.99
2017-01-30T04:24:46.558Z,99.99
2017-01-30T04:25:46.528Z,99.99
2017-01-30T04:26:46.513Z,99.99
2017-01-30T04:27:46.492Z,99.99
2017-01-30T04:28:46.469Z,99.99
2017-01-30T04:29:46.451Z,99.99
2017-01-30T04:30:46.428Z,99.99
2017-01-30T04:31:46.410Z,99.99
2017-01-30T04:32:46.395Z,99.99
2017-01-30T04:33:46.377Z,99.99
2017-01-30T04:34:46.356Z,99.99
2017-01-30T04:35:45.939Z,99.99
2017-01-30T04:36:46.314Z,99.99
2017-01-30T04:37:46.295Z,99.99
2017-01-30T04:38:46.276Z,99.99
2017-01-30T04:39:46.258Z,99.99
2017-01-30T04:40:46.240Z,99.99
2017-01-30T04:41:46.219Z,99.99
2017-01-30T04:42:46.207Z,99.99
2017-01-30T04:43:46.205Z,99.99
2017-01-30T04:44:46.167Z,99.99
2017-01-30T04:45:46.149Z,99.99
2017-01-30T04:46:46.120Z,99.99
2017-01-30T04:47:46.103Z,99.99
2017-01-30T04:48:46.084Z,99.99
2017-01-30T04:49:46.062Z,99.99
2017-01-30T04:50:46.043Z,99.99
2017-01-30T04:51:46.027Z,99.99
2017-01-30T04:52:46.004Z,99.99
2017-01-30T04:53:46.012Z,99.99
2017-01-30T04:54:45.965Z,99.99
2017-01-30T04:55:45.946Z,99.99
2017-01-30T04:56:45.928Z,99.99
2017-01-30T04:57:45.908Z,99.99
2017-01-30T04:58:45.889Z,99.99
2017-01-30T04:59:45.867Z,99.99
2017-01-30T05:00:45.851Z,99.99
2017-01-30T05:01:45.829Z,99.99
2017-01-30T05:02:45.415Z,99.99
2017-01-30T05:03:45.796Z,99.99
2017-01-30T05:04:45.791Z,99.99
2017-01-30T05:05:45.762Z,99.99
2017-01-30T05:06:45.738Z,99.99
2017-01-30T05:07:45.319Z,99.99
2017-01-30T05:08:45.693Z,99.99
2017-01-30T05:09:45.677Z,99.99
2017-01-30T05:10:45.658Z,99.99
2017-01-30T05:11:45.634Z,99.99
2017-01-30T05:12:45.615Z,99.99
2017-01-30T05:13:45.598Z,99.99
2017-01-30T05:14:45.576Z,99.99
2017-01-30T05:15:45.558Z,99.99
2017-01-30T05:16:45.539Z,99.99
2017-01-30T05:17:45.522Z,99.99
2017-01-30T05:18:45.508Z,99.99
2017-01-30T05:19:45.481Z,99.99
2017-01-30T05:20:45.460Z,99.99
2017-01-30T05:21:45.442Z,99.99
2017-01-30T05:22:45.419Z,99.99
2017-01-30T05:23:45.408Z,99.99
2017-01-30T05:24:45.382Z,99.99
2017-01-30T05:25:45.364Z,99.99
2017-01-30T05:26:45.346Z,99.99
2017-01-30T05:27:45.325Z,99.99
2017-01-30T05:28:45.300Z,99.99
2017-01-30T05:29:45.288Z,99.99
2017-01-30T05:30:45.264Z,99.99
2017-01-30T05:31:45.249Z,99.99
2017-01-30T05:32:45.226Z,99.99
2017-01-30T05:33:45.206Z,99.99
2017-01-30T05:34:45.186Z,99.99
2017-01-30T05:35:45.168Z,99.99
2017-01-30T05:36:45.151Z,99.99
2017-01-30T05:37:45.131Z,99.99
2017-01-30T05:38:45.111Z,99.99
2017-01-30T05:39:45.099Z,99.99
2017-01-30T05:40:45.075Z,99.99
2017-01-30T05:41:45.052Z,99.99
2017-01-30T05:42:44.637Z,99.99
2017-01-30T05:43:45.015Z,99.99
2017-01-30T05:44:44.996Z,99.99
2017-01-30T05:45:44.976Z,99.99
2017-01-30T05:46:44.955Z,99.99
2017-01-30T05:47:44.941Z,99.99
2017-01-30T05:48:44.519Z,99.99
2017-01-30T05:49:44.901Z,99.99
2017-01-30T05:50:44.879Z,99.99
2017-01-30T05:51:44.861Z,99.99
2017-01-30T05:52:44.840Z,99.99
2017-01-30T05:53:44.433Z,99.99
2017-01-30T05:54:44.830Z,99.99
2017-01-30T05:55:44.779Z,99.99
2017-01-30T05:56:44.761Z,99.99
2017-01-30T05:57:44.759Z,99.99
2017-01-30T05:58:44.729Z,99.99
2017-01-30T05:59:44.705Z,99.35
2017-01-30T06:00:44.697Z,99.26
2017-01-30T06:01:44.667Z,97.92
2017-01-30T06:02:44.649Z,98.02
2017-01-30T06:03:44.832Z,97.26
2017-01-30T06:04:44.609Z,97.45
2017-01-30T06:05:44.586Z,97.07
2017-01-30T06:06:44.568Z,96.31
2017-01-30T06:07:44.570Z,95.36
2017-01-30T06:08:44.535Z,94.7
2017-01-30T06:09:44.115Z,93.18
2017-01-30T06:10:44.492Z,92.14
2017-01-30T06:11:44.482Z,92.04
2017-01-30T06:12:44.499Z,92.14
2017-01-30T06:13:44.440Z,91.09
2017-01-30T06:14:44.413Z,90.9
2017-01-30T06:15:44.390Z,90.24
2017-01-30T06:16:44.372Z,89.86
2017-01-30T06:17:44.350Z,89.1
2017-01-30T06:18:44.333Z,88.53
2017-01-30T06:19:44.317Z,88.34
2017-01-30T06:20:44.299Z,88.24
2017-01-30T06:21:44.279Z,87.87
2017-01-30T06:22:44.257Z,87.11
2017-01-30T06:23:44.238Z,87.11
2017-01-30T06:24:44.214Z,86.54
2017-01-30T06:25:44.197Z,87.49
2017-01-30T06:26:44.173Z,87.39
2017-01-30T06:27:44.158Z,87.11
2017-01-30T06:28:44.137Z,86.25
2017-01-30T06:29:44.121Z,85.49
2017-01-30T06:30:44.125Z,85.21
2017-01-30T06:31:44.080Z,84.17
2017-01-30T06:32:44.065Z,83.5
2017-01-30T06:33:44.038Z,84.07
2017-01-30T06:34:44.023Z,83.97
2017-01-30T06:35:44.001Z,84.36
2017-01-30T06:36:43.986Z,83.69
2017-01-30T06:37:43.967Z,82.84
2017-01-30T06:38:43.557Z,81.98
2017-01-30T06:39:43.929Z,81.7
2017-01-30T06:40:43.902Z,81.04
2017-01-30T06:41:43.882Z,81.13
2017-01-30T06:42:43.862Z,80.84
2017-01-30T06:43:43.847Z,80.27
2017-01-30T06:44:43.820Z,79.61
2017-01-30T06:45:43.806Z,78.66
2017-01-30T06:46:43.787Z,78.66
2017-01-30T06:47:43.763Z,78.38
2017-01-30T06:48:43.741Z,77.81
2017-01-30T06:49:43.723Z,78.09
2017-01-30T06:50:43.709Z,77.71
2017-01-30T06:51:43.684Z,77.33
2017-01-30T06:52:43.666Z,77.33
2017-01-30T06:53:43.645Z,77.71
2017-01-30T06:54:43.628Z,76.86
2017-01-30T06:55:43.607Z,76.95
2017-01-30T06:56:43.596Z,76.57
2017-01-30T06:57:43.572Z,76.2
2017-01-30T06:58:43.559Z,76.1
2017-01-30T06:59:43.531Z,75.53
2017-01-30T07:00:43.506Z,75.62
2017-01-30T07:01:43.486Z,75.15
2017-01-30T07:02:43.476Z,74.96
2017-01-30T07:03:43.445Z,75.15
2017-01-30T07:04:43.431Z,74.68
2017-01-30T07:05:43.404Z,74.11
2017-01-30T07:06:43.386Z,74.68
2017-01-30T07:07:43.372Z,74.39
2017-01-30T07:08:43.344Z,74.39
2017-01-30T07:09:43.324Z,74.87
2017-01-30T07:10:43.305Z,74.87
2017-01-30T07:11:43.292Z,74.49
2017-01-30T07:12:43.270Z,73.92
2017-01-30T07:13:43.248Z,74.2
2017-01-30T07:14:43.229Z,74.3
2017-01-30T07:15:43.206Z,73.92
2017-01-30T07:16:43.189Z,74.3
2017-01-30T07:17:43.171Z,73.72
2017-01-30T07:18:43.148Z,73.92
2017-01-30T07:19:43.131Z,72.97
2017-01-30T07:20:43.109Z,72.4
2017-01-30T07:21:43.083Z,70.59
2017-01-30T07:22:43.065Z,69.08
2017-01-30T07:23:43.045Z,68.89
2017-01-30T07:24:43.028Z,68.51
2017-01-30T07:25:43.008Z,68.23
2017-01-30T07:26:42.989Z,68.23
2017-01-30T07:27:42.964Z,68.04
2017-01-30T07:28:42.948Z,68.6
2017-01-30T07:29:42.959Z,68.7
2017-01-30T07:30:42.905Z,68.98
2017-01-30T07:31:42.886Z,69.27
2017-01-30T07:32:42.866Z,69.36
2017-01-30T07:33:42.847Z,70.31
2017-01-30T07:34:42.823Z,70.88
2017-01-30T07:35:42.806Z,71.26
2017-01-30T07:36:42.786Z,71.83
2017-01-30T07:37:42.767Z,71.55
2017-01-30T07:38:42.746Z,71.92
2017-01-30T07:39:42.726Z,72.11
2017-01-30T07:40:42.312Z,71.92
2017-01-30T07:41:42.686Z,72.49
2017-01-30T07:42:42.668Z,72.59
2017-01-30T07:43:42.251Z,72.49
2017-01-30T07:44:42.624Z,72.59
2017-01-30T07:45:42.606Z,72.4
2017-01-30T07:46:42.585Z,72.02
2017-01-30T07:47:42.563Z,72.02
2017-01-30T07:48:42.543Z,72.4
2017-01-30T07:49:42.523Z,72.68
2017-01-30T07:50:42.506Z,72.21
2017-01-30T07:51:42.485Z,72.59
2017-01-30T07:52:42.467Z,72.78
2017-01-30T07:53:42.456Z,71.92
2017-01-30T07:54:42.424Z,72.21
2017-01-30T07:55:42.407Z,71.92
2017-01-30T07:56:42.390Z,72.11
2017-01-30T07:57:42.363Z,72.11
2017-01-30T07:58:42.346Z,72.3
2017-01-30T07:59:41.932Z,71.73
2017-01-30T08:00:42.307Z,72.11
2017-01-30T08:01:42.285Z,72.21
2017-01-30T08:02:42.265Z,72.3
2017-01-30T08:03:42.648Z,71.73
2017-01-30T08:04:42.225Z,71.92
2017-01-30T08:05:42.208Z,71.73
2017-01-30T08:06:42.186Z,71.73
2017-01-30T08:07:42.169Z,71.83
2017-01-30T08:08:42.146Z,71.83
2017-01-30T08:09:42.130Z,72.3
2017-01-30T08:10:42.109Z,72.49
2017-01-30T08:11:42.089Z,72.59
2017-01-30T08:12:42.069Z,72.4
2017-01-30T08:13:42.050Z,72.78
2017-01-30T08:14:42.031Z,72.59
2017-01-30T08:15:42.007Z,72.4
2017-01-30T08:16:41.986Z,72.59
2017-01-30T08:17:41.974Z,73.07
2017-01-30T08:18:41.549Z,72.97
2017-01-30T08:19:41.926Z,73.16
2017-01-30T08:20:41.910Z,72.97
2017-01-30T08:21:41.945Z,73.63
2017-01-30T08:22:41.472Z,72.97
2017-01-30T08:23:41.898Z,73.07
2017-01-30T08:24:41.843Z,73.25
2017-01-30T08:25:41.814Z,73.07
2017-01-30T08:26:41.791Z,73.16
2017-01-30T08:27:41.781Z,73.25
2017-01-30T08:28:41.750Z,73.44
2017-01-30T08:29:41.726Z,73.16
2017-01-30T08:30:41.707Z,73.82
2017-01-30T08:31:41.689Z,73.82
2017-01-30T08:32:41.667Z,73.82
2017-01-30T08:33:41.656Z,73.82
2017-01-30T08:34:41.632Z,73.44
2017-01-30T08:35:41.608Z,73.82
2017-01-30T08:36:41.194Z,73.92
2017-01-30T08:37:41.568Z,74.01
2017-01-30T08:38:41.550Z,74.01
2017-01-30T08:39:41.529Z,74.39
2017-01-30T08:40:41.513Z,74.3
2017-01-30T08:41:41.518Z,74.87
2017-01-30T08:42:41.480Z,74.68
2017-01-30T08:43:41.449Z,74.58
2017-01-30T08:44:41.429Z,74.49
2017-01-30T08:45:41.436Z,75.24
2017-01-30T08:46:41.387Z,74.96
2017-01-30T08:47:40.990Z,74.77
2017-01-30T08:48:41.368Z,75.05
2017-01-30T08:49:41.335Z,74.58
2017-01-30T08:50:41.309Z,74.58
2017-01-30T08:51:41.292Z,74.68
2017-01-30T08:52:41.273Z,74.49
2017-01-30T08:53:41.254Z,74.96
2017-01-30T08:54:41.234Z,75.62
2017-01-30T08:55:41.217Z,75.15
2017-01-30T08:56:41.193Z,75.43
2017-01-30T08:57:40.786Z,75.34
2017-01-30T08:58:41.151Z,75.15
2017-01-30T08:59:41.136Z,75.34
2017-01-30T09:00:41.117Z,75.24
2017-01-30T09:01:41.094Z,75.34
2017-01-30T09:02:41.104Z,75.15
2017-01-30T09:03:41.053Z,75.15
2017-01-30T09:04:40.638Z,75.72
2017-01-30T09:05:41.017Z,75.43
2017-01-30T09:06:40.993Z,75.62
2017-01-30T09:07:40.976Z,75.34
2017-01-30T09:08:40.955Z,75.53
2017-01-30T09:09:40.938Z,75.72
2017-01-30T09:10:40.980Z,75.72
2017-01-30T09:11:40.904Z,75.43
2017-01-30T09:12:40.891Z,75.53
2017-01-30T09:13:40.858Z,75.24
2017-01-30T09:14:40.840Z,74.9
2017-01-30T09:15:40.823Z,75.09
2017-01-30T09:16:40.804Z,75.09
2017-01-30T09:17:40.787Z,74.71
2017-01-30T09:18:40.759Z,74.71
2017-01-30T09:19:40.743Z,74.71
2017-01-30T09:20:40.730Z,74.9
2017-01-30T09:21:40.700Z,74.71
2017-01-30T09:22:40.687Z,75
2017-01-30T09:23:40.663Z,74.9
2017-01-30T09:24:40.646Z,74.52
2017-01-30T09:25:40.627Z,74.81
2017-01-30T09:26:40.220Z,74.81
2017-01-30T09:27:40.190Z,74.71
2017-01-30T09:28:40.171Z,74.15
2017-01-30T09:29:40.152Z,74.05
2017-01-30T09:30:40.530Z,74.24
2017-01-30T09:31:40.512Z,74.24
2017-01-30T09:32:40.490Z,74.52
2017-01-30T09:33:40.476Z,74.43
2017-01-30T09:34:40.455Z,74.43
2017-01-30T09:35:40.438Z,74.33
2017-01-30T09:36:40.413Z,74.62
2017-01-30T09:37:40.399Z,74.52
2017-01-30T09:38:40.377Z,74.52
2017-01-30T09:39:40.390Z,74.33
2017-01-30T09:40:40.336Z,74.05
2017-01-30T09:41:40.317Z,74.05
2017-01-30T09:42:40.295Z,73.86
2017-01-30T09:43:40.290Z,73.96
2017-01-30T09:44:40.277Z,73.96
2017-01-30T09:45:40.251Z,73.86
2017-01-30T09:46:40.223Z,73.86
2017-01-30T09:47:40.204Z,74.05
2017-01-30T09:48:40.182Z,73.76
2017-01-30T09:49:40.169Z,73.86
2017-01-30T09:50:40.147Z,73.86
2017-01-30T09:51:40.130Z,73.76
2017-01-30T09:52:40.107Z,73.76
2017-01-30T09:53:40.089Z,73.96
2017-01-30T09:54:40.066Z,74.05
2017-01-30T09:55:40.048Z,73.96
2017-01-30T09:56:40.033Z,73.86
2017-01-30T09:57:40.012Z,73.86
2017-01-30T09:58:40.010Z,74.05
2017-01-30T09:59:39.972Z,73.76
2017-01-30T10:00:39.956Z,74.15
2017-01-30T10:01:39.934Z,73.38
2017-01-30T10:02:39.916Z,73.96
2017-01-30T10:03:39.503Z,73.76
2017-01-30T10:04:39.876Z,73.57
2017-01-30T10:05:39.865Z,73.48
2017-01-30T10:06:39.841Z,73.67
2017-01-30T10:07:39.818Z,73.96
2017-01-30T10:08:39.405Z,73.48
2017-01-30T10:09:39.782Z,73.29
2017-01-30T10:10:39.763Z,73.29
2017-01-30T10:11:39.750Z,73.57
2017-01-30T10:12:39.336Z,73.67
2017-01-30T10:13:39.310Z,73.38
2017-01-30T10:14:39.688Z,73.57
2017-01-30T10:15:39.667Z,73.86
2017-01-30T10:16:39.652Z,73.86
2017-01-30T10:17:39.632Z,73.86
2017-01-30T10:18:39.616Z,74.05
2017-01-30T10:19:39.625Z,74.05
2017-01-30T10:20:39.573Z,74.05
2017-01-30T10:21:39.557Z,73.96
2017-01-30T10:22:39.550Z,74.05
2017-01-30T10:23:39.532Z,74.15
2017-01-30T10:24:39.500Z,74.05
2017-01-30T10:25:39.489Z,74.15
2017-01-30T10:26:39.464Z,73.48
2017-01-30T10:27:39.448Z,73.86
2017-01-30T10:28:39.433Z,74.15
2017-01-30T10:29:39.464Z,74.05
2017-01-30T10:30:39.387Z,73.86
2017-01-30T10:31:39.367Z,73.96
2017-01-30T10:32:39.351Z,73.86
2017-01-30T10:33:39.346Z,74.05
2017-01-30T10:34:39.313Z,74.05
2017-01-30T10:35:39.316Z,74.43
2017-01-30T10:36:39.273Z,74.43
2017-01-30T10:37:39.250Z,74.52
2017-01-30T10:38:38.847Z,74.62
2017-01-30T10:39:39.223Z,74.75
2017-01-30T10:40:39.200Z,74.62
2017-01-30T10:41:39.181Z,74.52
2017-01-30T10:42:38.765Z,74.47
2017-01-30T10:43:39.142Z,74.27
2017-01-30T10:44:39.126Z,74.47
2017-01-30T10:45:39.110Z,74.47
2017-01-30T10:46:39.087Z,74.56
2017-01-30T10:47:38.674Z,74.47
2017-01-30T10:48:39.050Z,74.27
2017-01-30T10:49:39.037Z,74.18
2017-01-30T10:50:39.017Z,74.62
2017-01-30T10:51:38.993Z,74.18
2017-01-30T10:52:38.975Z,74.27
2017-01-30T10:53:38.559Z,74.47
2017-01-30T10:54:38.935Z,74.75
2017-01-30T10:55:38.922Z,74.47
2017-01-30T10:56:38.931Z,74.47
2017-01-30T10:57:38.889Z,74.56
2017-01-30T10:58:38.863Z,74.66
2017-01-30T10:59:38.851Z,74.27
2017-01-30T11:00:38.430Z,74.27
2017-01-30T11:01:38.806Z,74.18
2017-01-30T11:02:38.791Z,74.37
2017-01-30T11:03:38.775Z,74.37
2017-01-30T11:04:38.757Z,74.37
2017-01-30T11:05:38.732Z,74.75
2017-01-30T11:06:38.714Z,74.75
2017-01-30T11:07:38.697Z,74.85
2017-01-30T11:08:38.689Z,75.13
2017-01-30T11:09:38.683Z,74.94
2017-01-30T11:10:38.641Z,74.66
2017-01-30T11:11:38.620Z,75.23
2017-01-30T11:12:38.606Z,74.94
2017-01-30T11:13:38.590Z,74.85
2017-01-30T11:14:38.567Z,75.04
2017-01-30T11:15:38.549Z,75.51
2017-01-30T11:16:38.533Z,75.13
2017-01-30T11:17:38.511Z,75.13
2017-01-30T11:18:38.490Z,75.79
2017-01-30T11:19:38.474Z,75.42
2017-01-30T11:20:38.455Z,75.51
2017-01-30T11:21:38.434Z,75.42
2017-01-30T11:22:38.418Z,75.23
2017-01-30T11:23:38.399Z,75.32
2017-01-30T11:24:38.380Z,75.42
2017-01-30T11:25:38.359Z,75.32
2017-01-30T11:26:38.346Z,75.32
2017-01-30T11:27:38.324Z,75.99
2017-01-30T11:28:38.311Z,75.6
2017-01-30T11:29:38.294Z,75.42
2017-01-30T11:30:38.269Z,75.99
2017-01-30T11:31:38.254Z,75.79
2017-01-30T11:32:38.229Z,75.99
2017-01-30T11:33:38.223Z,75.99
2017-01-30T11:34:37.801Z,75.7
2017-01-30T11:35:38.180Z,75.79
2017-01-30T11:36:38.161Z,76.18
2017-01-30T11:37:38.171Z,76.37
2017-01-30T11:38:38.121Z,76.08
2017-01-30T11:39:38.105Z,76.37
2017-01-30T11:40:38.084Z,76.18
2017-01-30T11:41:38.071Z,76.08
2017-01-30T11:42:38.056Z,76.08
2017-01-30T11:43:38.030Z,76.08
2017-01-30T11:44:38.013Z,76.18
2017-01-30T11:45:37.992Z,75.79
2017-01-30T11:46:38.004Z,75.79
2017-01-30T11:47:37.954Z,75.89
2017-01-30T11:48:37.939Z,75.89
2017-01-30T11:49:37.923Z,76.75
2017-01-30T11:50:37.902Z,76.27
2017-01-30T11:51:37.882Z,76.65
2017-01-30T11:52:37.865Z,76.18
2017-01-30T11:53:37.853Z,76.08
2017-01-30T11:54:37.829Z,76.27
2017-01-30T11:55:37.812Z,76.08
2017-01-30T11:56:37.792Z,76.08
2017-01-30T11:57:37.772Z,76.08
2017-01-30T11:58:37.759Z,76.08
2017-01-30T11:59:37.738Z,76.08
2017-01-30T12:00:37.721Z,76.46
2017-01-30T12:01:37.707Z,76.84
2017-01-30T12:02:37.682Z,77.03
2017-01-30T12:03:37.662Z,76.93
2017-01-30T12:04:37.847Z,76.84
2017-01-30T12:05:37.627Z,76.93
2017-01-30T12:06:37.643Z,77.22
2017-01-30T12:07:37.592Z,77.03
2017-01-30T12:08:37.173Z,77.22
2017-01-30T12:09:37.555Z,77.41
2017-01-30T12:10:37.533Z,77.41
2017-01-30T12:11:37.120Z,77.22
2017-01-30T12:12:37.104Z,77.41
2017-01-30T12:13:37.484Z,77.41
2017-01-30T12:14:37.490Z,77.41
2017-01-30T12:15:37.448Z,77.41
2017-01-30T12:16:37.435Z,77.6
2017-01-30T12:17:37.409Z,77.7
2017-01-30T12:18:37.392Z,77.6
2017-01-30T12:19:37.423Z,77.89
2017-01-30T12:20:37.360Z,77.89
2017-01-30T12:21:37.337Z,77.6
2017-01-30T12:22:37.318Z,77.7
2017-01-30T12:23:37.298Z,77.6
2017-01-30T12:24:37.282Z,77.79
2017-01-30T12:25:37.260Z,77.89
2017-01-30T12:26:37.248Z,77.89
2017-01-30T12:27:37.227Z,77.98
2017-01-30T12:28:36.810Z,77.89
2017-01-30T12:29:37.193Z,77.7
2017-01-30T12:30:37.172Z,77.98
2017-01-30T12:31:37.152Z,77.7
2017-01-30T12:32:37.137Z,77.98
2017-01-30T12:33:36.720Z,77.51
2017-01-30T12:34:37.095Z,77.73
2017-01-30T12:35:37.078Z,77.7
2017-01-30T12:36:37.068Z,78.08
2017-01-30T12:37:37.045Z,77.64
2017-01-30T12:38:37.027Z,77.64
2017-01-30T12:39:37.011Z,77.7
2017-01-30T12:40:36.992Z,78.08
2017-01-30T12:41:36.577Z,77.73
2017-01-30T12:42:36.956Z,77.73
2017-01-30T12:43:36.939Z,77.73
2017-01-30T12:44:36.917Z,77.45
2017-01-30T12:45:36.899Z,77.83
2017-01-30T12:46:36.487Z,77.6
2017-01-30T12:47:36.873Z,77.92
2017-01-30T12:48:36.478Z,77.45
2017-01-30T12:49:36.826Z,77.73
2017-01-30T12:50:36.814Z,77.17
2017-01-30T12:51:36.789Z,77.55
2017-01-30T12:52:36.773Z,77.45
2017-01-30T12:53:36.753Z,77.64
2017-01-30T12:54:36.739Z,77.36